Time;durP1;ratioP1;P1;durP2;ratioP2;P2;SDS_P1;SDS_P2;PMS_P1;PMS_P2;Temp;Humidity;BMP_temperature;BMP_pressure;BME280_temperature;BME280_humidity;BME280_pressure;Samples;Min_cycle;Max_cycle;Signal;HPM_P1;HPM_P2
2023/05/07 00:01:17;;;;;;;2.63;1.10;;;15.30;61.60;;;;;;5036621;28;20041;-60
2023/05/07 00:03:43;;;;;;;3.28;1.00;;;15.30;61.70;;;;;;5037657;28;20059;-60
2023/05/07 00:06:10;;;;;;;1.42;1.02;;;15.20;61.70;;;;;;5033675;28;20908;-62
2023/05/07 00:08:35;;;;;;;3.15;0.90;;;15.20;61.70;;;;;;5035414;28;20025;-60
2023/05/07 00:11:01;;;;;;;2.95;1.08;;;15.20;61.70;;;;;;5035576;28;20039;-60
2023/05/07 00:13:27;;;;;;;1.60;1.00;;;15.10;61.80;;;;;;5039005;28;20045;-60
2023/05/07 00:15:52;;;;;;;2.83;1.52;;;15.10;61.90;;;;;;5036752;28;20055;-60
2023/05/07 00:18:20;;;;;;;2.00;1.30;;;15.10;61.90;;;;;;5035766;28;20029;-60
2023/05/07 00:20:46;;;;;;;7.78;1.30;;;15.10;62.00;;;;;;5037088;28;20036;-59
2023/05/07 00:23:12;;;;;;;2.97;1.58;;;15.10;62.20;;;;;;5035792;28;20029;-59
2023/05/07 00:25:37;;;;;;;4.45;1.20;;;15.00;62.20;;;;;;5037025;28;20052;-59
2023/05/07 00:28:03;;;;;;;2.40;1.63;;;15.00;62.20;;;;;;5035727;28;20029;-61
2023/05/07 00:30:29;;;;;;;2.53;1.45;;;15.00;62.20;;;;;;5037921;28;20038;-61
2023/05/07 00:32:55;;;;;;;2.10;1.52;;;15.00;62.30;;;;;;5036024;28;20029;-60
2023/05/07 00:35:21;;;;;;;5.97;1.33;;;15.00;62.40;;;;;;5036748;28;20041;-60
2023/05/07 00:37:48;;;;;;;3.08;1.45;;;15.00;62.50;;;;;;5035927;28;20037;-60
2023/05/07 00:40:14;;;;;;;3.42;1.20;;;14.90;62.40;;;;;;5035546;28;20052;-61
2023/05/07 00:42:39;;;;;;;3.05;1.30;;;14.90;62.40;;;;;;5034434;28;20085;-58
2023/05/07 00:45:07;;;;;;;1.98;1.20;;;14.90;62.50;;;;;;5038500;28;20075;-60
2023/05/07 00:47:33;;;;;;;3.25;1.05;;;14.90;62.50;;;;;;5039180;28;20022;-59
2023/05/07 00:49:59;;;;;;;4.28;1.05;;;14.90;62.60;;;;;;5038321;28;20176;-59
2023/05/07 00:52:26;;;;;;;2.63;1.10;;;14.80;63.30;;;;;;5035684;28;20029;-60
2023/05/07 00:54:52;;;;;;;2.08;1.20;;;14.80;62.80;;;;;;5035748;28;20029;-61
2023/05/07 00:57:18;;;;;;;2.42;1.15;;;14.80;62.70;;;;;;5036809;28;20029;-60
2023/05/07 00:59:44;;;;;;;3.30;1.13;;;14.80;62.70;;;;;;5034925;28;20036;-59
2023/05/07 01:02:10;;;;;;;1.63;0.90;;;14.70;62.80;;;;;;5034990;28;20026;-60
2023/05/07 01:04:36;;;;;;;3.38;0.80;;;14.70;62.90;;;;;;5036619;28;20057;-60
2023/05/07 01:07:03;;;;;;;1.42;1.25;;;14.70;62.90;;;;;;5036156;28;20029;-58
2023/05/07 01:09:29;;;;;;;2.60;1.23;;;14.70;63.00;;;;;;5034721;28;20104;-59
2023/05/07 01:11:57;;;;;;;2.92;1.30;;;14.70;63.10;;;;;;5034977;28;20026;-58
2023/05/07 01:14:23;;;;;;;3.75;1.70;;;14.70;63.20;;;;;;5034696;28;20134;-59
2023/05/07 01:16:50;;;;;;;4.05;1.23;;;14.60;63.10;;;;;;5032480;28;20017;-59
2023/05/07 01:19:18;;;;;;;2.22;1.05;;;14.60;63.10;;;;;;5035115;28;20021;-59
2023/05/07 01:21:47;;;;;;;1.20;1.10;;;14.60;63.30;;;;;;5035105;28;20431;-59
2023/05/07 01:24:14;;;;;;;1.45;0.98;;;14.60;63.40;;;;;;5033107;28;20071;-59
2023/05/07 01:26:40;;;;;;;1.23;1.00;;;14.50;63.20;;;;;;5037154;28;20450;-59
2023/05/07 01:29:06;;;;;;;0.90;0.90;;;14.50;63.40;;;;;;5034038;28;20038;-59
2023/05/07 01:31:34;;;;;;;3.17;1.02;;;14.50;63.40;;;;;;5035984;28;20032;-61
2023/05/07 01:34:01;;;;;;;2.35;1.15;;;14.50;63.60;;;;;;5035674;28;20034;-58
2023/05/07 01:36:30;;;;;;;3.60;1.00;;;14.40;63.60;;;;;;5032620;28;20017;-60
2023/05/07 01:38:57;;;;;;;1.05;0.98;;;14.40;63.70;;;;;;5033575;28;20025;-60
2023/05/07 01:41:24;;;;;;;1.42;1.20;;;14.40;63.60;;;;;;4945777;28;20037;-60
2023/05/07 01:43:51;;;;;;;1.75;1.20;;;14.40;63.50;;;;;;5037666;28;20025;-60
2023/05/07 01:46:18;;;;;;;1.73;1.15;;;14.40;63.50;;;;;;5030872;28;20110;-58
2023/05/07 01:48:45;;;;;;;1.80;1.10;;;14.40;63.70;;;;;;5034832;28;20025;-60
2023/05/07 01:51:12;;;;;;;2.47;1.20;;;14.30;63.80;;;;;;5033937;28;20048;-60
2023/05/07 01:53:39;;;;;;;1.70;1.30;;;14.30;63.70;;;;;;5034210;28;20026;-59
2023/05/07 01:56:05;;;;;;;2.95;1.13;;;14.30;63.80;;;;;;5032159;28;20029;-59
2023/05/07 01:58:31;;;;;;;1.60;1.27;;;14.30;63.80;;;;;;5033943;28;20022;-59
2023/05/07 02:00:56;;;;;;;1.40;1.17;;;14.20;63.90;;;;;;5034532;28;20124;-60
2023/05/07 02:03:22;;;;;;;1.30;1.15;;;14.20;63.90;;;;;;5036059;28;20048;-59
2023/05/07 02:05:47;;;;;;;2.78;1.20;;;14.20;64.00;;;;;;5016178;28;20037;-59
2023/05/07 02:08:13;;;;;;;2.28;1.20;;;14.20;64.10;;;;;;5029142;28;20038;-59
2023/05/07 02:10:39;;;;;;;1.77;1.13;;;14.20;64.10;;;;;;5035005;28;20170;-60
2023/05/07 02:13:05;;;;;;;2.28;1.10;;;14.20;64.10;;;;;;5034003;28;20046;-60
2023/05/07 02:15:30;;;;;;;1.10;0.98;;;14.10;64.10;;;;;;5034415;28;20025;-59
2023/05/07 02:18:03;;;;;;;1.60;1.10;;;14.10;64.00;;;;;;5036274;28;20022;-61
2023/05/07 02:20:29;;;;;;;2.35;0.98;;;14.10;64.40;;;;;;5032935;28;20025;-60
2023/05/07 02:22:55;;;;;;;2.95;1.00;;;14.10;64.00;;;;;;5033738;28;20029;-59
2023/05/07 02:25:20;;;;;;;3.28;1.10;;;14.10;64.10;;;;;;5034306;28;20029;-59
2023/05/07 02:27:46;;;;;;;1.50;1.00;;;14.00;64.10;;;;;;5017063;28;20040;-59
2023/05/07 02:30:12;;;;;;;1.65;0.98;;;14.00;64.20;;;;;;5021277;28;20045;-60
2023/05/07 02:32:38;;;;;;;2.70;1.13;;;14.00;64.20;;;;;;5038809;28;20034;-58
2023/05/07 02:35:04;;;;;;;3.85;1.05;;;13.90;64.40;;;;;;5038504;28;20032;-59
2023/05/07 02:37:30;;;;;;;2.13;1.23;;;13.90;64.50;;;;;;5039710;28;20037;-60
2023/05/07 02:39:56;;;;;;;2.75;1.27;;;13.90;64.60;;;;;;5037106;28;20021;-58
2023/05/07 02:42:21;;;;;;;2.22;1.00;;;13.90;64.70;;;;;;5040307;28;20068;-59
2023/05/07 02:44:47;;;;;;;1.25;1.10;;;13.90;64.70;;;;;;5040451;28;20029;-59
2023/05/07 02:47:14;;;;;;;2.30;1.20;;;13.90;64.70;;;;;;5037712;28;20045;-58
2023/05/07 02:49:40;;;;;;;4.00;1.05;;;13.90;64.70;;;;;;5036127;28;20060;-58
2023/05/07 02:52:06;;;;;;;3.20;1.30;;;13.80;64.70;;;;;;5022154;28;20572;-60
2023/05/07 02:54:32;;;;;;;5.55;1.10;;;13.80;64.70;;;;;;5037672;28;20044;-58
2023/05/07 02:56:58;;;;;;;1.88;1.13;;;13.80;64.60;;;;;;5035161;28;20037;-58
2023/05/07 02:59:25;;;;;;;3.88;1.08;;;13.80;64.60;;;;;;5039433;28;20037;-60
2023/05/07 03:01:50;;;;;;;2.15;1.02;;;13.70;64.70;;;;;;5037930;28;20030;-59
2023/05/07 03:04:16;;;;;;;2.15;1.40;;;13.70;64.70;;;;;;5036909;28;20120;-61
2023/05/07 03:06:42;;;;;;;4.47;1.10;;;13.70;64.80;;;;;;5037625;28;20033;-60
2023/05/07 03:09:08;;;;;;;1.73;0.95;;;13.70;64.90;;;;;;5038185;28;20387;-59
2023/05/07 03:11:35;;;;;;;2.60;1.13;;;13.70;64.90;;;;;;5036678;28;20061;-61
2023/05/07 03:14:01;;;;;;;4.32;1.02;;;13.60;64.90;;;;;;5037984;28;20056;-60
2023/05/07 03:16:27;;;;;;;2.50;1.10;;;13.60;64.80;;;;;;5036149;28;20025;-60
2023/05/07 03:18:52;;;;;;;18.27;1.58;;;13.60;64.60;;;;;;5038313;28;20086;-58
2023/05/07 03:21:18;;;;;;;1.95;1.10;;;13.60;64.70;;;;;;5034694;28;20085;-58
2023/05/07 03:23:44;;;;;;;1.90;1.42;;;13.50;64.70;;;;;;5035788;28;20405;-59
2023/05/07 03:26:10;;;;;;;2.17;1.20;;;13.50;64.70;;;;;;5038309;28;20068;-58
2023/05/07 03:28:36;;;;;;;2.65;1.50;;;13.50;65.30;;;;;;5037572;28;20033;-59
2023/05/07 03:31:02;;;;;;;0.90;0.90;;;13.50;64.70;;;;;;5035114;28;20053;-60
2023/05/07 03:33:27;;;;;;;2.50;1.02;;;13.50;64.70;;;;;;5038443;28;20025;-60
2023/05/07 03:35:53;;;;;;;2.83;1.23;;;13.40;64.80;;;;;;5038235;28;20025;-59
2023/05/07 03:38:19;;;;;;;3.58;1.10;;;13.40;64.90;;;;;;5036640;28;20025;-60
2023/05/07 03:40:46;;;;;;;2.08;1.17;;;13.40;65.00;;;;;;4932440;28;20021;-58
2023/05/07 03:43:11;;;;;;;1.05;0.95;;;13.40;65.20;;;;;;5036017;28;20581;-59
2023/05/07 03:45:37;;;;;;;2.22;1.10;;;13.40;65.10;;;;;;5037002;28;20033;-60
2023/05/07 03:48:03;;;;;;;2.45;1.00;;;13.30;65.10;;;;;;5037551;28;20021;-58
2023/05/07 03:50:28;;;;;;;3.22;1.10;;;13.30;65.00;;;;;;5037336;28;20033;-59
2023/05/07 03:52:54;;;;;;;1.83;0.88;;;13.30;65.10;;;;;;5036784;28;20026;-59
2023/05/07 03:55:21;;;;;;;3.72;1.08;;;13.30;65.30;;;;;;5032262;28;20025;-59
2023/05/07 03:57:46;;;;;;;2.60;1.92;;;13.30;65.40;;;;;;5034095;28;20117;-60
2023/05/07 04:00:13;;;;;;;3.92;2.30;;;13.30;65.50;;;;;;5037168;28;20069;-58
2023/05/07 04:02:38;;;;;;;2.22;1.50;;;13.20;65.40;;;;;;5037118;28;20053;-61
2023/05/07 04:05:04;;;;;;;1.67;1.25;;;13.30;65.50;;;;;;5036310;28;20032;-60
2023/05/07 04:07:30;;;;;;;1.13;1.08;;;13.20;65.60;;;;;;5034374;28;20033;-59
2023/05/07 04:09:56;;;;;;;4.03;1.15;;;13.20;65.60;;;;;;5030045;28;20049;-60
2023/05/07 04:12:21;;;;;;;1.35;1.20;;;13.20;65.60;;;;;;5035675;28;20401;-59
2023/05/07 04:14:47;;;;;;;1.38;1.00;;;13.10;65.60;;;;;;5036568;28;20033;-59
2023/05/07 04:17:13;;;;;;;1.35;1.15;;;13.10;65.70;;;;;;5036524;28;20052;-58
2023/05/07 04:19:38;;;;;;;2.60;1.15;;;13.10;65.70;;;;;;5035967;28;20402;-59
2023/05/07 04:22:05;;;;;;;2.88;1.30;;;13.10;65.50;;;;;;5034055;28;20021;-59
2023/05/07 04:24:33;;;;;;;2.83;1.38;;;13.10;65.70;;;;;;5036114;28;20041;-60
2023/05/07 04:26:59;;;;;;;3.72;1.40;;;13.10;66.00;;;;;;5034549;28;20028;-59
2023/05/07 04:29:25;;;;;;;2.08;1.52;;;13.10;66.00;;;;;;5036577;28;20037;-60
2023/05/07 04:31:50;;;;;;;1.42;1.30;;;13.10;66.10;;;;;;5020142;28;20482;-60
2023/05/07 04:34:16;;;;;;;1.98;1.20;;;13.10;66.10;;;;;;5038708;28;20026;-59
2023/05/07 04:36:42;;;;;;;2.95;1.25;;;13.10;66.20;;;;;;5035771;28;20025;-59
2023/05/07 04:39:08;;;;;;;1.77;1.20;;;13.10;66.30;;;;;;5037060;28;20502;-61
2023/05/07 04:41:36;;;;;;;4.68;1.30;;;13.10;66.40;;;;;;4981825;28;20028;-60
2023/05/07 04:44:03;;;;;;;3.65;1.35;;;13.10;67.30;;;;;;5034210;28;20033;-61
2023/05/07 04:46:29;;;;;;;1.20;1.10;;;13.10;66.70;;;;;;5035811;28;20018;-59
2023/05/07 04:48:55;;;;;;;3.58;1.38;;;13.10;66.80;;;;;;5036902;28;20044;-59
2023/05/07 04:51:20;;;;;;;1.20;1.10;;;13.20;66.90;;;;;;5033533;28;20040;-60
2023/05/07 04:53:47;;;;;;;4.95;1.10;;;13.20;66.90;;;;;;5037055;28;20035;-61
2023/05/07 04:56:13;;;;;;;2.55;1.10;;;13.20;66.90;;;;;;5039067;28;21317;-59
2023/05/07 04:58:38;;;;;;;6.28;1.77;;;13.20;66.90;;;;;;5037389;28;20048;-60
2023/05/07 05:01:04;;;;;;;1.98;1.10;;;13.30;67.00;;;;;;5034622;28;20057;-59
2023/05/07 05:03:30;;;;;;;1.48;1.17;;;13.30;67.20;;;;;;5036582;28;20017;-61
2023/05/07 05:05:59;;;;;;;1.90;1.20;;;13.30;67.40;;;;;;5018771;28;20056;-61
2023/05/07 05:08:24;;;;;;;8.02;1.45;;;13.40;67.50;;;;;;5036065;28;20503;-59
2023/05/07 05:10:50;;;;;;;2.45;1.20;;;13.50;67.50;;;;;;5033584;28;20116;-60
2023/05/07 05:13:16;;;;;;;3.22;1.10;;;13.60;67.60;;;;;;5035821;28;20052;-60
2023/05/07 05:15:42;;;;;;;1.60;1.20;;;13.70;67.60;;;;;;5035317;28;20048;-60
2023/05/07 05:18:07;;;;;;;5.15;1.30;;;13.80;67.50;;;;;;5035504;28;20109;-60
2023/05/07 05:20:33;;;;;;;2.50;1.10;;;13.90;67.40;;;;;;5035005;28;20029;-58
2023/05/07 05:22:59;;;;;;;1.30;1.20;;;14.00;67.30;;;;;;5036763;28;20033;-59
2023/05/07 05:25:25;;;;;;;1.42;1.08;;;14.20;67.20;;;;;;5036244;28;20041;-58
2023/05/07 05:27:50;;;;;;;1.42;1.20;;;14.30;67.10;;;;;;5040483;28;20030;-59
2023/05/07 05:30:16;;;;;;;2.60;1.30;;;14.40;66.70;;;;;;5035418;28;20044;-60
2023/05/07 05:32:41;;;;;;;0.90;0.90;;;14.50;66.40;;;;;;5036140;28;20457;-60
2023/05/07 05:35:08;;;;;;;1.20;1.10;;;14.60;66.20;;;;;;5031921;28;20472;-60
2023/05/07 05:37:33;;;;;;;4.90;1.42;;;14.60;66.20;;;;;;5034899;28;20026;-59
2023/05/07 05:39:59;;;;;;;3.65;1.52;;;14.70;66.30;;;;;;5035410;28;20089;-59
2023/05/07 05:42:25;;;;;;;2.80;1.52;;;14.80;66.30;;;;;;5034160;28;20064;-61
2023/05/07 05:44:50;;;;;;;1.85;1.38;;;14.90;66.30;;;;;;5032445;28;20033;-58
2023/05/07 05:47:16;;;;;;;3.63;1.85;;;15.00;66.10;;;;;;5035542;28;20568;-60
2023/05/07 05:49:43;;;;;;;2.40;1.60;;;15.10;65.90;;;;;;5030488;28;20501;-60
2023/05/07 05:52:09;;;;;;;2.83;1.52;;;15.20;65.70;;;;;;5034718;28;20045;-59
2023/05/07 05:54:34;;;;;;;12.00;1.70;;;15.30;65.60;;;;;;5034690;28;20021;-59
2023/05/07 05:57:03;;;;;;;2.97;1.88;;;15.40;65.50;;;;;;5037849;28;20085;-60
2023/05/07 05:59:29;;;;;;;1.88;1.38;;;15.50;65.40;;;;;;5034432;28;20029;-61
2023/05/07 06:01:55;;;;;;;3.95;1.60;;;15.70;65.30;;;;;;5034627;28;20063;-59
2023/05/07 06:04:21;;;;;;;2.28;1.60;;;15.80;65.30;;;;;;5034165;28;20089;-62
2023/05/07 06:06:46;;;;;;;1.63;1.33;;;15.90;65.10;;;;;;5034642;28;20308;-61
2023/05/07 06:09:12;;;;;;;4.15;1.45;;;16.00;64.90;;;;;;5029191;28;20079;-60
2023/05/07 06:11:38;;;;;;;1.92;1.55;;;16.20;65.00;;;;;;5027324;28;20060;-59
2023/05/07 06:14:03;;;;;;;3.92;1.80;;;16.30;64.70;;;;;;5032946;28;20412;-60
2023/05/07 06:16:29;;;;;;;2.10;1.75;;;16.50;64.50;;;;;;5033038;28;20033;-59
2023/05/07 06:18:55;;;;;;;2.88;1.45;;;16.60;64.20;;;;;;5034422;28;20021;-60
2023/05/07 06:21:21;;;;;;;3.70;1.55;;;16.80;64.10;;;;;;5037711;28;20072;-59
2023/05/07 06:23:46;;;;;;;1.88;1.42;;;16.90;64.00;;;;;;5033652;28;20030;-60
2023/05/07 06:26:12;;;;;;;4.97;2.00;;;17.10;64.10;;;;;;5035029;28;20030;-59
2023/05/07 06:28:38;;;;;;;2.97;1.65;;;17.20;63.80;;;;;;5034489;28;20582;-60
2023/05/07 06:31:14;;;;;;;4.43;1.70;;;17.40;63.60;;;;;;5012858;28;20053;-60
2023/05/07 06:33:40;;;;;;;4.97;2.00;;;17.50;63.10;;;;;;5035736;28;20067;-60
2023/05/07 06:36:06;;;;;;;3.80;1.90;;;17.70;62.70;;;;;;5031044;28;20029;-60
2023/05/07 06:38:32;;;;;;;2.40;1.80;;;17.80;62.20;;;;;;5034380;28;20110;-59
2023/05/07 06:40:57;;;;;;;2.30;1.80;;;18.00;62.30;;;;;;4920535;28;20523;-60
2023/05/07 06:43:23;;;;;;;4.28;1.90;;;18.10;61.70;;;;;;5034652;28;20065;-60
2023/05/07 06:45:48;;;;;;;4.38;2.17;;;18.30;61.10;;;;;;5033067;28;20062;-60
2023/05/07 06:48:14;;;;;;;1.92;1.63;;;18.40;61.10;;;;;;5035633;28;20033;-59
2023/05/07 06:50:41;;;;;;;2.85;1.90;;;18.50;61.00;;;;;;5033270;28;20042;-60
2023/05/07 06:53:07;;;;;;;3.13;2.10;;;18.70;60.60;;;;;;5035018;28;20091;-60
2023/05/07 06:55:32;;;;;;;5.05;1.85;;;18.80;60.40;;;;;;5033965;28;20057;-61
2023/05/07 06:58:00;;;;;;;3.05;1.88;;;18.90;60.30;;;;;;5032870;28;20036;-59
2023/05/07 07:00:27;;;;;;;2.88;2.13;;;19.00;59.90;;;;;;5031020;28;20029;-62
2023/05/07 07:02:54;;;;;;;2.53;2.03;;;19.20;59.90;;;;;;5030097;28;20033;-60
2023/05/07 07:05:20;;;;;;;3.95;2.30;;;19.30;59.60;;;;;;5029141;28;20116;-61
2023/05/07 07:07:52;;;;;;;3.55;2.65;;;19.40;59.50;;;;;;5038027;28;20034;-60
2023/05/07 07:10:19;;;;;;;3.45;2.88;;;19.60;59.40;;;;;;5031690;28;20537;-59
2023/05/07 07:12:44;;;;;;;3.95;2.85;;;19.70;59.10;;;;;;5033519;28;20118;-61
2023/05/07 07:15:10;;;;;;;4.63;2.58;;;19.90;58.80;;;;;;5036521;28;20072;-59
2023/05/07 07:17:36;;;;;;;6.25;3.00;;;20.00;58.60;;;;;;5020891;28;20032;-60
2023/05/07 07:20:02;;;;;;;4.35;3.08;;;20.20;58.30;;;;;;5038177;28;20489;-61
2023/05/07 07:22:29;;;;;;;3.92;2.95;;;20.30;58.10;;;;;;5038265;28;20044;-60
2023/05/07 07:24:54;;;;;;;3.92;2.92;;;20.50;58.00;;;;;;5034783;28;20040;-62
2023/05/07 07:27:20;;;;;;;5.05;2.65;;;20.60;57.70;;;;;;5039679;28;20049;-60
2023/05/07 07:29:46;;;;;;;6.13;3.38;;;20.70;57.60;;;;;;5037553;28;20180;-59
2023/05/07 07:32:12;;;;;;;5.70;2.85;;;20.80;57.20;;;;;;5040434;28;20037;-60
2023/05/07 07:34:37;;;;;;;3.35;2.85;;;20.90;56.70;;;;;;5046925;28;20472;-61
2023/05/07 07:37:05;;;;;;;7.38;2.80;;;20.90;56.80;;;;;;5045415;28;20044;-60
2023/05/07 07:39:32;;;;;;;5.30;2.67;;;21.00;56.80;;;;;;5039932;28;20029;-60
2023/05/07 07:41:58;;;;;;;3.60;2.63;;;21.10;56.60;;;;;;4949535;28;20041;-61
2023/05/07 07:44:25;;;;;;;4.03;2.70;;;21.20;56.70;;;;;;5039449;28;20041;-61
2023/05/07 07:46:51;;;;;;;3.92;2.83;;;21.30;56.30;;;;;;5038156;28;20030;-61
2023/05/07 07:49:17;;;;;;;4.43;2.30;;;21.40;55.70;;;;;;5036923;28;20040;-60
2023/05/07 07:51:43;;;;;;;3.55;2.13;;;21.50;55.50;;;;;;5039158;28;20085;-60
2023/05/07 07:54:09;;;;;;;2.47;2.10;;;21.60;55.40;;;;;;5037567;28;20083;-61
2023/05/07 07:56:34;;;;;;;2.97;1.70;;;21.70;55.20;;;;;;5037713;28;20089;-60
2023/05/07 07:59:00;;;;;;;2.70;2.03;;;21.70;55.10;;;;;;5039251;28;20021;-61
2023/05/07 08:01:26;;;;;;;2.92;1.95;;;21.80;55.00;;;;;;5034218;28;20029;-60
2023/05/07 08:03:52;;;;;;;1.98;1.80;;;21.90;54.70;;;;;;5037339;28;20544;-61
2023/05/07 08:06:18;;;;;;;2.05;1.73;;;21.90;54.70;;;;;;5038787;28;20128;-61
2023/05/07 08:08:44;;;;;;;4.07;1.73;;;22.00;54.40;;;;;;5021608;28;20052;-59
2023/05/07 08:11:10;;;;;;;2.47;1.75;;;22.10;54.30;;;;;;5036287;28;20116;-60
2023/05/07 08:13:37;;;;;;;2.97;1.85;;;22.10;53.70;;;;;;5038882;28;20140;-61
2023/05/07 08:16:04;;;;;;;2.00;1.75;;;22.10;53.80;;;;;;5038451;28;20057;-60
2023/05/07 08:18:29;;;;;;;2.40;1.60;;;22.10;53.70;;;;;;5040732;28;20054;-60
2023/05/07 08:20:55;;;;;;;2.42;1.98;;;22.10;53.80;;;;;;5040436;28;20026;-61
2023/05/07 08:23:21;;;;;;;5.03;1.80;;;22.20;53.80;;;;;;5037506;28;20029;-60
2023/05/07 08:25:49;;;;;;;2.38;1.75;;;22.30;53.70;;;;;;5036535;28;20021;-60
2023/05/07 08:28:15;;;;;;;3.58;1.75;;;22.40;53.70;;;;;;5038244;28;20029;-60
2023/05/07 08:30:41;;;;;;;2.65;1.92;;;22.50;53.50;;;;;;5035186;28;20041;-61
2023/05/07 08:33:08;;;;;;;2.70;1.70;;;22.60;53.70;;;;;;5041911;28;20045;-61
2023/05/07 08:35:34;;;;;;;4.25;1.80;;;22.70;53.30;;;;;;5036872;28;20116;-59
2023/05/07 08:37:59;;;;;;;2.78;1.60;;;22.80;53.10;;;;;;5037971;28;20052;-60
2023/05/07 08:40:26;;;;;;;4.57;1.95;;;22.90;52.40;;;;;;4925898;28;20128;-61
2023/05/07 08:42:53;;;;;;;1.48;1.38;;;23.00;52.60;;;;;;5036518;28;20059;-61
2023/05/07 08:45:20;;;;;;;4.70;1.50;;;23.10;52.40;;;;;;5037326;28;20599;-61
2023/05/07 08:47:56;;;;;;;3.63;1.75;;;23.20;52.30;;;;;;5033456;28;20125;-61
2023/05/07 08:50:22;;;;;;;2.67;1.75;;;23.30;52.30;;;;;;5033905;28;20033;-60
2023/05/07 08:52:48;;;;;;;5.53;2.40;;;23.40;52.70;;;;;;5036444;28;20032;-62
2023/05/07 08:55:14;;;;;;;3.20;2.00;;;23.60;52.40;;;;;;5035190;28;20029;-62
2023/05/07 08:57:40;;;;;;;3.33;2.17;;;23.70;52.40;;;;;;5037325;28;20031;-60
2023/05/07 09:00:07;;;;;;;3.25;1.67;;;23.90;52.30;;;;;;5034694;28;20076;-60
2023/05/07 09:02:33;;;;;;;2.60;1.60;;;24.00;51.90;;;;;;5035929;28;20021;-60
2023/05/07 09:04:59;;;;;;;3.47;1.70;;;24.10;52.40;;;;;;5033479;28;20040;-60
2023/05/07 09:07:26;;;;;;;2.08;1.50;;;24.20;51.70;;;;;;5034263;28;20022;-62
2023/05/07 09:09:52;;;;;;;2.72;1.75;;;24.40;50.90;;;;;;5036157;28;20044;-60
2023/05/07 09:12:18;;;;;;;4.13;1.95;;;24.50;50.60;;;;;;5034090;28;20037;-59
2023/05/07 09:14:45;;;;;;;2.10;1.65;;;24.60;50.20;;;;;;5036376;28;20053;-61
2023/05/07 09:17:11;;;;;;;5.72;1.90;;;24.70;50.50;;;;;;5035759;28;20087;-61
2023/05/07 09:19:37;;;;;;;2.15;1.92;;;24.80;49.60;;;;;;5035968;28;20030;-61
2023/05/07 09:22:05;;;;;;;6.03;1.92;;;24.90;49.60;;;;;;5037252;28;20053;-61
2023/05/07 09:24:34;;;;;;;2.28;1.58;;;25.00;49.20;;;;;;5036891;28;20036;-61
2023/05/07 09:27:02;;;;;;;2.90;1.70;;;25.00;48.90;;;;;;5017911;28;20064;-60
2023/05/07 09:29:35;;;;;;;2.50;1.75;;;25.10;48.30;;;;;;5035561;28;20026;-61
2023/05/07 09:32:02;;;;;;;2.33;1.63;;;25.10;48.10;;;;;;5035901;28;20026;-60
2023/05/07 09:34:29;;;;;;;2.70;1.58;;;25.20;48.50;;;;;;5032913;28;20498;-62
2023/05/07 09:36:56;;;;;;;3.03;1.88;;;25.20;48.50;;;;;;5036532;28;20025;-60
2023/05/07 09:39:23;;;;;;;4.05;1.60;;;25.30;48.10;;;;;;5035344;28;20089;-61
2023/05/07 09:41:49;;;;;;;2.90;1.58;;;25.30;48.30;;;;;;4940538;28;20033;-61
2023/05/07 09:44:15;;;;;;;4.72;2.25;;;25.40;48.60;;;;;;5036239;28;20036;-62
2023/05/07 09:46:44;;;;;;;4.43;2.13;;;25.40;47.80;;;;;;5034740;28;20058;-61
2023/05/07 09:49:20;;;;;;;3.72;2.13;;;25.60;47.60;;;;;;5035263;28;20026;-61
2023/05/07 09:51:50;;;;;;;1.83;1.73;;;25.60;47.60;;;;;;5034343;28;20041;-61
2023/05/07 09:54:17;;;;;;;3.05;2.03;;;25.70;47.60;;;;;;5035620;28;20077;-62
2023/05/07 09:56:47;;;;;;;4.35;2.00;;;25.80;47.90;;;;;;5035210;28;20029;-59
2023/05/07 09:59:15;;;;;;;4.82;1.70;;;25.80;47.50;;;;;;5036407;28;20060;-60
2023/05/07 10:01:42;;;;;;;3.00;1.58;;;25.90;46.90;;;;;;5034631;28;20037;-60
2023/05/07 10:04:09;;;;;;;3.40;1.15;;;26.00;47.00;;;;;;5018781;28;20142;-60
2023/05/07 10:06:35;;;;;;;1.17;0.80;;;26.00;45.90;;;;;;5035002;28;20022;-61
2023/05/07 10:09:02;;;;;;;2.10;1.25;;;26.00;45.60;;;;;;5037368;28;20029;-61
2023/05/07 10:11:28;;;;;;;1.88;1.33;;;26.10;45.70;;;;;;5035745;28;20097;-61
2023/05/07 10:13:54;;;;;;;3.40;1.73;;;26.20;45.00;;;;;;5038819;28;20045;-61
2023/05/07 10:16:21;;;;;;;2.17;1.88;;;26.20;45.20;;;;;;5034757;28;20092;-60
2023/05/07 10:18:48;;;;;;;2.90;1.60;;;26.30;45.30;;;;;;5036407;28;20030;-61
2023/05/07 10:21:18;;;;;;;3.75;1.70;;;26.30;44.60;;;;;;5035311;28;20040;-60
2023/05/07 10:23:56;;;;;;;1.80;1.30;;;26.40;44.50;;;;;;5033443;28;20033;-60
2023/05/07 10:26:24;;;;;;;3.20;1.35;;;26.40;43.70;;;;;;5017446;28;20033;-61
2023/05/07 10:28:58;;;;;;;7.00;1.75;;;26.50;44.20;;;;;;5035233;28;20033;-62
2023/05/07 10:31:41;;;;;;;1.50;1.08;;;26.60;43.40;;;;;;5033850;28;20109;-61
2023/05/07 10:34:19;;;;;;;2.83;1.20;;;26.60;43.60;;;;;;5033729;28;20396;-60
2023/05/07 10:36:45;;;;;;;3.55;2.20;;;26.50;43.00;;;;;;5037494;28;20041;-60
2023/05/07 10:39:11;;;;;;;3.20;2.00;;;26.50;43.50;;;;;;5033532;28;20456;-61
2023/05/07 10:41:36;;;;;;;2.65;1.55;;;26.50;44.20;;;;;;4958001;28;20021;-62
2023/05/07 10:44:02;;;;;;;4.60;0.90;;;26.50;43.80;;;;;;5034751;28;20585;-61
2023/05/07 10:46:28;;;;;;;2.13;1.42;;;26.60;43.80;;;;;;5033260;28;20026;-61
2023/05/07 10:49:00;;;;;;;2.58;1.52;;;26.60;43.70;;;;;;5035381;28;20037;-61
2023/05/07 10:51:27;;;;;;;4.68;1.67;;;26.60;42.50;;;;;;5039201;28;20025;-61
2023/05/07 10:54:11;;;;;;;2.40;1.50;;;26.70;44.00;;;;;;5039705;28;20026;-62
2023/05/07 10:56:47;;;;;;;4.90;1.17;;;26.80;42.70;;;;;;5036834;28;20037;-61
2023/05/07 10:59:27;;;;;;;3.75;1.30;;;26.90;43.00;;;;;;5035853;28;20111;-61
2023/05/07 11:01:53;;;;;;;1.60;1.02;;;27.00;41.80;;;;;;5037404;28;20048;-60
2023/05/07 11:04:24;;;;;;;1.33;1.00;;;27.10;42.50;;;;;;5039972;28;20033;-61
2023/05/07 11:07:08;;;;;;;1.45;0.98;;;27.20;42.40;;;;;;5035792;28;20060;-61
2023/05/07 11:09:52;;;;;;;3.90;1.00;;;27.30;41.90;;;;;;5038237;28;20040;-61
2023/05/07 11:12:36;;;;;;;4.00;1.40;;;27.40;37.60;;;;;;5038651;28;20704;-61
2023/05/07 11:15:07;;;;;;;2.10;1.13;;;27.40;40.40;;;;;;5038414;28;20417;-61
2023/05/07 11:17:36;;;;;;;2.42;1.27;;;27.40;40.10;;;;;;5035704;28;20263;-60
2023/05/07 11:20:04;;;;;;;2.78;1.10;;;27.40;40.90;;;;;;5038150;28;20104;-59
2023/05/07 11:22:33;;;;;;;2.30;0.93;;;27.50;40.90;;;;;;5038535;28;20028;-61
2023/05/07 11:25:06;;;;;;;3.97;1.08;;;27.50;40.80;;;;;;5039275;28;20057;-61
2023/05/07 11:27:32;;;;;;;1.67;1.10;;;27.60;40.30;;;;;;5035340;28;20085;-60
2023/05/07 11:29:59;;;;;;;2.45;1.00;;;27.60;41.80;;;;;;5038150;28;20084;-61
2023/05/07 11:32:26;;;;;;;1.38;0.80;;;27.60;41.00;;;;;;5020816;28;20040;-62
2023/05/07 11:34:53;;;;;;;2.53;1.20;;;27.70;40.90;;;;;;5042825;28;20032;-60
2023/05/07 11:37:20;;;;;;;2.88;1.10;;;27.70;41.30;;;;;;5038316;28;20030;-61
2023/05/07 11:39:45;;;;;;;2.00;1.30;;;27.70;41.30;;;;;;4945510;28;20682;-61
2023/05/07 11:42:35;;;;;;;6.55;1.40;;;27.70;40.90;;;;;;5036313;28;20035;-60
2023/05/07 11:45:02;;;;;;;1.27;1.08;;;27.80;40.00;;;;;;5038334;28;20033;-60
2023/05/07 11:47:31;;;;;;;1.90;1.10;;;27.80;40.60;;;;;;5038246;28;20119;-61
2023/05/07 11:49:57;;;;;;;10.90;1.30;;;27.90;40.40;;;;;;5036458;28;20350;-60
2023/05/07 11:52:24;;;;;;;3.05;1.02;;;27.90;40.60;;;;;;5037089;28;20033;-62
2023/05/07 11:54:52;;;;;;;1.70;1.08;;;27.90;38.90;;;;;;5036017;28;20033;-61
2023/05/07 11:57:18;;;;;;;1.95;1.23;;;28.00;39.40;;;;;;5035094;28;20052;-61
2023/05/07 11:59:47;;;;;;;1.92;0.98;;;28.00;40.10;;;;;;5038393;28;20041;-62
2023/05/07 12:02:17;;;;;;;1.35;0.90;;;28.00;40.80;;;;;;5038376;28;20025;-62
2023/05/07 12:04:43;;;;;;;1.65;0.80;;;28.10;40.60;;;;;;5037273;28;20033;-60
2023/05/07 12:07:16;;;;;;;1.55;0.95;;;28.10;39.70;;;;;;5018722;28;20029;-60
2023/05/07 12:09:42;;;;;;;1.80;0.70;;;28.10;38.70;;;;;;5036509;28;20029;-62
2023/05/07 12:12:08;;;;;;;3.25;0.93;;;28.10;39.40;;;;;;5037126;28;20502;-62
2023/05/07 12:14:42;;;;;;;1.05;0.90;;;28.10;39.50;;;;;;5037132;28;20029;-63
2023/05/07 12:17:09;;;;;;;3.50;1.67;;;28.10;39.20;;;;;;5036926;28;20040;-61
2023/05/07 12:19:36;;;;;;;1.90;1.48;;;28.20;39.70;;;;;;5037113;28;20089;-61
2023/05/07 12:22:03;;;;;;;2.17;1.50;;;28.20;39.70;;;;;;5037188;28;20048;-62
2023/05/07 12:24:28;;;;;;;20.63;5.28;;;28.20;39.00;;;;;;5038463;28;20036;-60
2023/05/07 12:26:54;;;;;;;2.33;2.05;;;28.30;38.90;;;;;;5035017;28;20416;-62
2023/05/07 12:29:23;;;;;;;2.30;1.48;;;28.30;38.80;;;;;;5035725;28;20030;-61
2023/05/07 12:31:50;;;;;;;2.78;1.70;;;28.30;38.50;;;;;;5036333;28;20071;-61
2023/05/07 12:34:16;;;;;;;4.32;1.40;;;28.30;39.10;;;;;;5038332;28;20025;-61
2023/05/07 12:36:42;;;;;;;2.33;1.30;;;28.30;39.00;;;;;;5018507;28;20033;-62
2023/05/07 12:39:08;;;;;;;1.55;1.13;;;28.30;38.80;;;;;;5036010;28;20048;-61
2023/05/07 12:41:58;;;;;;;1.45;1.05;;;28.30;39.00;;;;;;4928961;28;20500;-61
2023/05/07 12:44:35;;;;;;;2.35;0.90;;;28.20;38.30;;;;;;5013886;28;20399;-61